createdAt,value
2023-01-20T00:01:50.824Z,99166.95
2023-01-20T00:04:23.075Z,99169.05
2023-01-20T00:07:09.160Z,99166.97
2023-01-20T00:09:41.255Z,99168.19
2023-01-20T00:12:11.986Z,99171.23
2023-01-20T00:14:44.161Z,99172.19
2023-01-20T00:17:16.649Z,99172.61
2023-01-20T00:19:52.115Z,99171.59
2023-01-20T00:22:24.734Z,99168.33
2023-01-20T00:24:57.092Z,99166.08
2023-01-20T00:27:32.651Z,99171.50
2023-01-20T00:30:10.195Z,99170.35
2023-01-20T00:32:44.870Z,99173.29
2023-01-20T00:35:17.497Z,99176.71
2023-01-20T00:37:53.137Z,99177.80
2023-01-20T00:40:44.200Z,99182.66
2023-01-20T00:43:16.634Z,99183.33
2023-01-20T00:45:48.944Z,99185.91
2023-01-20T00:48:25.712Z,99187.46
2023-01-20T00:50:57.800Z,99189.66
2023-01-20T00:53:30.279Z,99194.27
2023-01-20T00:56:03.001Z,99191.61
2023-01-20T00:58:59.369Z,99189.57
2023-01-20T01:01:34.185Z,99182.77
2023-01-20T01:04:09.464Z,99184.05
2023-01-20T01:06:42.438Z,99187.05
2023-01-20T01:09:15.682Z,99189.45
2023-01-20T01:11:46.342Z,99196.56
2023-01-20T01:14:18.862Z,99199.77
2023-01-20T01:16:51.144Z,99204.51
2023-01-20T01:19:23.369Z,99197.56
2023-01-20T01:21:54.057Z,99194.87
2023-01-20T01:24:26.259Z,99187.83
2023-01-20T01:26:58.766Z,99186.54
2023-01-20T01:29:45.345Z,99187.80
2023-01-20T01:32:21.073Z,99189.89
2023-01-20T01:34:53.542Z,99191.38
2023-01-20T01:37:27.314Z,99193.20
2023-01-20T01:39:59.801Z,99193.25
2023-01-20T01:42:32.180Z,99201.16
2023-01-20T01:45:23.956Z,99204.45
2023-01-20T01:48:03.114Z,99217.40
2023-01-20T01:50:40.934Z,99222.65
2023-01-20T01:53:14.377Z,99224.37
2023-01-20T01:55:52.836Z,99225.21
2023-01-20T01:58:29.323Z,99223.38
2023-01-20T02:01:04.806Z,99225.71
2023-01-20T02:03:43.996Z,99231.08
2023-01-20T02:06:27.078Z,99234.55
2023-01-20T02:09:01.155Z,99238.39
2023-01-20T02:11:43.875Z,99245.58
2023-01-20T02:14:17.769Z,99245.69
2023-01-20T02:17:02.701Z,99244.40
2023-01-20T02:20:16.460Z,99242.27
2023-01-20T02:22:52.538Z,99244.34
2023-01-20T02:25:47.941Z,99249.65
2023-01-20T02:28:47.023Z,99247.58
2023-01-20T02:32:02.314Z,99247.27
2023-01-20T02:34:39.630Z,99246.02
2023-01-20T02:37:19.621Z,99246.81
2023-01-20T02:40:19.548Z,99246.41
2023-01-20T02:42:58.823Z,99255.27
2023-01-20T02:45:36.745Z,99255.93
2023-01-20T02:48:16.626Z,99261.19
2023-01-20T02:50:59.586Z,99265.84
2023-01-20T02:53:38.522Z,99268.95
2023-01-20T02:56:12.566Z,99270.38
2023-01-20T02:58:50.488Z,99270.25
2023-01-20T03:01:28.474Z,99275.09
2023-01-20T03:04:06.359Z,99277.60
2023-01-20T03:06:42.081Z,99276.59
2023-01-20T03:09:22.231Z,99270.18
2023-01-20T03:11:58.713Z,99268.74
2023-01-20T03:14:32.061Z,99270.19
2023-01-20T03:17:07.268Z,99267.24
2023-01-20T03:19:39.753Z,99268.55
2023-01-20T03:22:12.102Z,99268.95
2023-01-20T03:24:48.472Z,99274.36
2023-01-20T03:27:20.869Z,99276.49
2023-01-20T03:29:53.524Z,99268.39
2023-01-20T03:32:29.499Z,99263.67
2023-01-20T03:35:02.353Z,99266.06
2023-01-20T03:37:39.421Z,99269.13
2023-01-20T03:45:07.139Z,99275.30
2023-01-20T03:47:59.720Z,99279.11
2023-01-20T03:50:58.559Z,99279.94
2023-01-20T03:53:37.534Z,99278.21
2023-01-20T03:56:18.110Z,99287.85
2023-01-20T03:58:54.749Z,99295.44
2023-01-20T04:01:39.476Z,99295.41
2023-01-20T04:04:15.865Z,99297.30
2023-01-20T04:07:10.825Z,99302.44
2023-01-20T04:09:47.512Z,99310.45
2023-01-20T04:12:40.097Z,99323.25
2023-01-20T04:15:14.085Z,99322.89
2023-01-20T04:17:47.131Z,99321.52
2023-01-20T04:20:38.678Z,99323.25
2023-01-20T04:23:15.527Z,99318.92
2023-01-20T04:26:08.421Z,99312.81
2023-01-20T04:28:43.461Z,99308.60
2023-01-20T04:31:29.713Z,99316.38
2023-01-20T04:34:06.190Z,99321.27
2023-01-20T04:36:38.281Z,99331.91
2023-01-20T04:39:19.815Z,99337.90
2023-01-20T04:42:13.472Z,99342.77
2023-01-20T04:45:07.150Z,99352.73
2023-01-20T04:47:59.875Z,99360.45
2023-01-20T04:50:52.603Z,99360.09
2023-01-20T04:53:36.511Z,99357.23
2023-01-20T04:56:15.371Z,99360.74
2023-01-20T04:59:01.603Z,99367.80
2023-01-20T05:01:46.704Z,99365.42
2023-01-20T05:04:19.157Z,99362.55
2023-01-20T05:07:00.175Z,99359.20
2023-01-20T05:09:45.479Z,99359.56
2023-01-20T05:12:30.674Z,99355.17
2023-01-20T05:15:02.983Z,99349.69
2023-01-20T05:17:48.178Z,99347.33
2023-01-20T05:20:39.063Z,99346.69
2023-01-20T05:23:31.721Z,99347.61
2023-01-20T05:26:12.852Z,99353.86
2023-01-20T05:28:47.281Z,99361.13
2023-01-20T05:31:19.672Z,99377.63
2023-01-20T05:34:06.127Z,99385.31
2023-01-20T05:36:38.303Z,99385.16
2023-01-20T05:39:08.843Z,99372.86
2023-01-20T05:41:55.163Z,99362.45
2023-01-20T05:44:30.659Z,99359.77
2023-01-20T05:47:02.727Z,99364.55
2023-01-20T05:49:39.661Z,99367.94
2023-01-20T05:52:21.491Z,99372.27
2023-01-20T05:55:01.036Z,99377.47
2023-01-20T05:57:42.426Z,99381.38
2023-01-20T06:00:19.268Z,99377.91
2023-01-20T06:02:51.631Z,99376.32
2023-01-20T06:05:24.375Z,99379.11
2023-01-20T06:07:58.024Z,99378.95
2023-01-20T06:10:30.100Z,99380.97
2023-01-20T06:13:02.411Z,99390.95
2023-01-20T06:15:34.806Z,99405.32
2023-01-20T06:18:12.857Z,99415.23
2023-01-20T06:20:45.266Z,99428.79
2023-01-20T06:23:31.554Z,99438.19
2023-01-20T06:26:15.008Z,99442.08
2023-01-20T06:29:02.575Z,99435.08
2023-01-20T06:31:34.796Z,99440.67
2023-01-20T06:34:21.717Z,99451.36
2023-01-20T06:36:57.134Z,99461.25
2023-01-20T06:39:40.645Z,99471.30
2023-01-20T06:42:13.722Z,99474.64
2023-01-20T06:45:07.191Z,99482.51
2023-01-20T06:47:52.418Z,99485.85
2023-01-20T06:50:24.678Z,99490.04
2023-01-20T06:52:59.608Z,99494.09
2023-01-20T06:55:32.117Z,99491.69
2023-01-20T06:58:12.750Z,99493.59
2023-01-20T07:01:11.223Z,99495.83
2023-01-20T07:03:44.597Z,99494.90
2023-01-20T07:06:32.804Z,99493.09
2023-01-20T07:09:18.694Z,99496.50
2023-01-20T07:11:50.871Z,99502.13
2023-01-20T07:14:23.597Z,99505.75
2023-01-20T07:17:16.033Z,99502.05
2023-01-20T07:20:01.968Z,99510.05
2023-01-20T07:22:54.312Z,99514.98
2023-01-20T07:25:26.475Z,99517.34
2023-01-20T07:28:01.847Z,99516.02
2023-01-20T07:30:32.482Z,99512.59
2023-01-20T07:33:07.646Z,99514.63
2023-01-20T07:35:58.433Z,99512.77
2023-01-20T07:38:41.029Z,99513.98
2023-01-20T07:41:24.830Z,99514.32
2023-01-20T07:44:17.709Z,99522.42
2023-01-20T07:47:10.468Z,99527.12
2023-01-20T07:49:56.821Z,99534.99
2023-01-20T07:52:39.035Z,99539.98
2023-01-20T07:55:14.443Z,99539.06
2023-01-20T07:57:50.821Z,99548.35
2023-01-20T08:00:43.403Z,99555.59
2023-01-20T08:03:15.804Z,99563.17
2023-01-20T08:06:08.731Z,99559.46
2023-01-20T08:08:44.267Z,99550.95
2023-01-20T08:11:33.486Z,99552.90
2023-01-20T08:14:26.050Z,99556.05
2023-01-20T08:16:56.781Z,99564.30
2023-01-20T08:19:49.070Z,99560.49
2023-01-20T08:22:21.435Z,99558.73
2023-01-20T08:24:56.706Z,99559.48
2023-01-20T08:27:32.410Z,99558.67
2023-01-20T08:30:04.975Z,99561.77
2023-01-20T08:32:48.281Z,99560.45
2023-01-20T08:35:18.941Z,99556.27
2023-01-20T08:38:11.563Z,99558.23
2023-01-20T08:40:52.771Z,99560.55
2023-01-20T08:43:45.567Z,99557.60
2023-01-20T08:46:41.507Z,99557.42
2023-01-20T08:49:16.781Z,99560.08
2023-01-20T08:52:04.227Z,99565.14
2023-01-20T08:54:41.881Z,99566.83
2023-01-20T08:57:33.006Z,99568.73
2023-01-20T09:00:26.619Z,99571.36
2023-01-20T09:02:58.759Z,99572.80
2023-01-20T09:05:31.205Z,99577.08
2023-01-20T09:08:27.057Z,99583.83
2023-01-20T09:11:05.060Z,99584.02
2023-01-20T09:13:38.215Z,99584.87
2023-01-20T09:16:13.066Z,99590.29
2023-01-20T09:19:05.548Z,99591.11
2023-01-20T09:21:56.499Z,99597.59
2023-01-20T09:24:28.812Z,99595.83
2023-01-20T09:27:12.061Z,99596.27
2023-01-20T09:29:44.358Z,99598.96
2023-01-20T09:32:17.004Z,99604.32
2023-01-20T09:34:49.260Z,99606.16
2023-01-20T09:37:39.424Z,99608.23
2023-01-20T09:40:35.010Z,99607.34
2023-01-20T09:43:46.211Z,99608.45
2023-01-20T09:46:25.474Z,99601.71
2023-01-20T09:49:21.643Z,99600.37
2023-01-20T09:52:38.961Z,99603.58
2023-01-20T09:55:20.810Z,99594.95
2023-01-20T09:57:59.845Z,99591.63
2023-01-20T10:00:35.740Z,99595.02
2023-01-20T10:03:25.610Z,99600.48
2023-01-20T10:06:12.711Z,99601.95
2023-01-20T10:09:04.449Z,99597.72
2023-01-20T10:11:41.542Z,99593.89
2023-01-20T10:14:20.931Z,99594.59
2023-01-20T10:17:02.407Z,99597.73
2023-01-20T10:19:42.403Z,99595.39
2023-01-20T10:22:28.949Z,99600.69
2023-01-20T10:25:08.059Z,99598.30
2023-01-20T10:27:46.257Z,99595.98
2023-01-20T10:30:20.368Z,99595.64
2023-01-20T10:33:06.743Z,99596.40
2023-01-20T10:35:41.587Z,99597.65
2023-01-20T10:38:25.868Z,99595.81
2023-01-20T10:41:28.250Z,99595.20
2023-01-20T10:44:01.576Z,99597.40
2023-01-20T10:46:50.355Z,99602.28
2023-01-20T10:49:46.091Z,99603.84
2023-01-20T10:52:30.387Z,99603.31
2023-01-20T10:55:16.516Z,99604.33
2023-01-20T10:57:57.284Z,99598.02
2023-01-20T11:00:35.848Z,99594.86
2023-01-20T11:03:12.292Z,99590.79
2023-01-20T11:05:52.143Z,99593.11
2023-01-20T11:08:30.438Z,99593.19
2023-01-20T11:11:11.092Z,99590.45
2023-01-20T11:13:43.823Z,99592.31
2023-01-20T11:16:24.736Z,99585.77
2023-01-20T11:19:02.690Z,99585.05
2023-01-20T11:21:37.278Z,99582.82
2023-01-20T11:24:42.848Z,99579.42
2023-01-20T11:27:18.768Z,99575.94
2023-01-20T11:29:56.983Z,99572.86
2023-01-20T11:32:35.994Z,99570.09
2023-01-20T11:35:22.771Z,99576.39
2023-01-20T11:37:57.451Z,99573.28
2023-01-20T11:40:30.999Z,99573.47
2023-01-20T11:43:03.509Z,99571.81
2023-01-20T11:45:37.210Z,99577.71
2023-01-20T11:48:21.615Z,99576.06
2023-01-20T11:50:57.604Z,99580.13
2023-01-20T11:53:32.091Z,99582.66
2023-01-20T11:56:06.932Z,99584.38
2023-01-20T11:58:54.891Z,99582.14
2023-01-20T12:01:29.667Z,99578.91
2023-01-20T12:04:28.016Z,99570.73
2023-01-20T12:07:08.584Z,99573.35
2023-01-20T12:09:44.998Z,99572.23
2023-01-20T12:12:34.206Z,99573.54
2023-01-20T12:15:13.210Z,99574.44
2023-01-20T12:17:53.683Z,99571.61
2023-01-20T12:20:45.614Z,99571.66
2023-01-20T12:23:26.700Z,99574.00
2023-01-20T12:26:21.143Z,99572.89
2023-01-20T12:28:59.612Z,99569.98
2023-01-20T12:31:37.368Z,99575.20
2023-01-20T12:34:16.401Z,99574.69
2023-01-20T12:37:01.495Z,99572.06
2023-01-20T12:39:52.454Z,99570.11
2023-01-20T12:42:52.938Z,99564.77
2023-01-20T12:45:38.553Z,99564.52
2023-01-20T12:48:27.068Z,99562.19
2023-01-20T12:51:21.664Z,99566.20
2023-01-20T12:54:08.324Z,99570.91
2023-01-20T12:56:53.449Z,99574.90
2023-01-20T12:59:38.661Z,99572.72
2023-01-20T13:02:37.706Z,99577.80
2023-01-20T13:05:35.135Z,99578.37
2023-01-20T13:08:16.676Z,99578.59
2023-01-20T13:11:03.582Z,99580.05
2023-01-20T13:13:56.834Z,99579.79
2023-01-20T13:16:38.096Z,99579.21
2023-01-20T13:19:16.866Z,99581.48
2023-01-20T13:22:07.011Z,99589.30
2023-01-20T13:24:40.762Z,99601.16
2023-01-20T13:27:13.986Z,99603.34
2023-01-20T13:29:56.829Z,99607.28
2023-01-20T13:32:35.825Z,99611.62
2023-01-20T13:35:43.237Z,99611.95
2023-01-20T13:38:30.883Z,99614.11
2023-01-20T13:41:06.065Z,99613.72
2023-01-20T13:43:53.087Z,99617.25
2023-01-20T13:46:47.460Z,99619.48
2023-01-20T13:49:45.804Z,99623.62
2023-01-20T13:52:57.591Z,99620.59
2023-01-20T13:55:52.574Z,99632.23
2023-01-20T13:58:26.401Z,99638.70
2023-01-20T14:01:00.713Z,99643.89
2023-01-20T14:03:35.286Z,99647.30
2023-01-20T14:06:19.495Z,99642.48
2023-01-20T14:08:53.552Z,99649.43
2023-01-20T14:11:27.576Z,99653.77
2023-01-20T14:14:05.772Z,99660.33
2023-01-20T14:16:44.834Z,99668.58
2023-01-20T14:19:24.882Z,99672.20
2023-01-20T14:21:58.964Z,99677.09
2023-01-20T14:24:33.772Z,99672.02
2023-01-20T14:27:16.453Z,99676.90
2023-01-20T14:29:53.447Z,99677.81
2023-01-20T14:32:28.458Z,99676.88
2023-01-20T14:35:01.613Z,99674.31
2023-01-20T14:37:36.683Z,99671.04
2023-01-20T14:40:23.687Z,99671.02
2023-01-20T14:43:00.434Z,99673.45
2023-01-20T14:45:34.537Z,99667.33
2023-01-20T14:48:07.866Z,99670.27
2023-01-20T14:50:40.978Z,99671.79
2023-01-20T14:53:16.887Z,99682.71
2023-01-20T14:56:02.231Z,99688.67
2023-01-20T14:58:35.176Z,99696.18
2023-01-20T15:01:08.488Z,99694.64
2023-01-20T15:03:40.660Z,99693.30
2023-01-20T15:06:24.071Z,99691.32
2023-01-20T15:09:06.460Z,99690.59
2023-01-20T15:11:40.059Z,99699.11
2023-01-20T15:14:14.627Z,99700.30
2023-01-20T15:16:51.151Z,99704.75
2023-01-20T15:19:47.309Z,99706.73
2023-01-20T15:22:27.964Z,99709.96
2023-01-20T15:25:13.058Z,99713.00
2023-01-20T15:27:45.488Z,99712.23
2023-01-20T15:30:21.408Z,99715.80
2023-01-20T15:32:55.740Z,99714.98
2023-01-20T15:35:31.783Z,99712.65
2023-01-20T15:38:13.011Z,99717.10
2023-01-20T15:40:45.750Z,99718.39
2023-01-20T15:43:19.967Z,99719.50
2023-01-20T15:45:52.237Z,99719.45
2023-01-20T15:48:27.303Z,99727.70
2023-01-20T15:50:59.686Z,99731.73
2023-01-20T15:53:32.300Z,99737.73
2023-01-20T15:56:06.377Z,99735.14
2023-01-20T15:58:40.332Z,99736.94
2023-01-20T16:01:21.074Z,99734.35
2023-01-20T16:03:55.036Z,99737.16
2023-01-20T16:06:31.807Z,99737.55
2023-01-20T16:09:14.980Z,99739.34
2023-01-20T16:11:47.661Z,99747.73
2023-01-20T16:14:19.935Z,99747.52
2023-01-20T16:16:52.503Z,99748.42
2023-01-20T16:19:24.717Z,99746.91
2023-01-20T16:21:59.882Z,99747.81
2023-01-20T16:24:32.221Z,99746.79
2023-01-20T16:27:03.738Z,99750.88
2023-01-20T16:29:36.096Z,99749.02
2023-01-20T16:32:08.795Z,99751.96
2023-01-20T16:34:41.232Z,99751.61
2023-01-20T16:37:13.768Z,99753.17
2023-01-20T16:39:44.285Z,99759.55
2023-01-20T16:42:17.618Z,99762.30
2023-01-20T16:44:50.055Z,99761.40
2023-01-20T16:47:22.541Z,99765.45
2023-01-20T16:49:54.731Z,99762.58
2023-01-20T16:52:27.196Z,99767.49
2023-01-20T16:54:57.803Z,99772.39
2023-01-20T16:57:30.037Z,99770.86
2023-01-20T17:00:02.352Z,99777.69
2023-01-20T17:02:35.281Z,99777.52
2023-01-20T17:05:09.195Z,99782.21
2023-01-20T17:07:41.544Z,99780.77
2023-01-20T17:10:13.571Z,99782.45
2023-01-20T17:12:48.652Z,99783.30
2023-01-20T17:15:21.925Z,99787.45
2023-01-20T17:17:56.721Z,99785.35
2023-01-20T17:20:32.566Z,99781.83
2023-01-20T17:23:07.920Z,99786.34
2023-01-20T17:25:41.117Z,99792.75
2023-01-20T17:28:13.443Z,99793.61
2023-01-20T17:30:45.690Z,99796.70
2023-01-20T17:33:17.942Z,99794.93
2023-01-20T17:35:59.570Z,99797.54
2023-01-20T17:38:33.396Z,99801.53
2023-01-20T17:41:06.659Z,99801.18
2023-01-20T17:43:40.909Z,99801.48
2023-01-20T17:46:18.286Z,99801.87
2023-01-20T17:48:51.091Z,99804.81
2023-01-20T17:51:25.208Z,99805.55
2023-01-20T17:54:03.787Z,99803.11
2023-01-20T17:56:36.641Z,99799.34
2023-01-20T17:59:07.586Z,99802.31
2023-01-20T18:01:40.386Z,99797.13
2023-01-20T18:04:12.563Z,99799.48
2023-01-20T18:06:45.004Z,99802.81
2023-01-20T18:09:17.735Z,99800.72
2023-01-20T18:11:49.965Z,99802.98
2023-01-20T18:14:20.590Z,99804.93
2023-01-20T18:16:56.210Z,99809.27
2023-01-20T18:19:28.950Z,99814.70
2023-01-20T18:22:07.008Z,99814.86
2023-01-20T18:24:39.496Z,99809.67
2023-01-20T18:27:14.927Z,99809.33
2023-01-20T18:29:47.175Z,99811.77
2023-01-20T18:32:18.007Z,99814.37
2023-01-20T18:34:50.878Z,99815.21
2023-01-20T18:37:23.096Z,99813.46
2023-01-20T18:39:55.268Z,99811.35
2023-01-20T18:42:28.303Z,99811.70
2023-01-20T18:45:01.709Z,99812.92
2023-01-20T18:47:34.374Z,99812.27
2023-01-20T18:50:07.873Z,99807.20
2023-01-20T18:52:40.510Z,99802.70
2023-01-20T18:55:15.662Z,99799.06
2023-01-20T18:57:48.107Z,99798.88
2023-01-20T19:00:21.489Z,99802.89
2023-01-20T19:02:54.316Z,99804.08
2023-01-20T19:05:36.252Z,99799.49
2023-01-20T19:08:08.853Z,99795.80
2023-01-20T19:10:41.144Z,99792.85
2023-01-20T19:13:14.211Z,99793.38
2023-01-20T19:15:46.573Z,99792.51
2023-01-20T19:18:17.363Z,99787.45
2023-01-20T19:20:49.554Z,99785.55
2023-01-20T19:23:22.016Z,99784.36
2023-01-20T19:26:03.598Z,99784.57
2023-01-20T19:28:36.513Z,99784.07
2023-01-20T19:31:13.842Z,99780.61
2023-01-20T19:34:06.943Z,99781.30
2023-01-20T19:36:39.701Z,99775.75
2023-01-20T19:39:13.069Z,99779.13
2023-01-20T19:41:45.907Z,99777.19
2023-01-20T19:44:23.511Z,99778.56
2023-01-20T19:46:58.869Z,99780.15
2023-01-20T19:49:31.995Z,99778.56
2023-01-20T19:52:04.661Z,99777.01
2023-01-20T19:54:51.719Z,99776.69
2023-01-20T19:57:27.467Z,99773.72
2023-01-20T20:00:06.634Z,99772.74
2023-01-20T20:02:45.553Z,99770.38
2023-01-20T20:05:26.993Z,99770.44
2023-01-20T20:08:14.110Z,99767.33
2023-01-20T20:10:51.380Z,99764.38
2023-01-20T20:13:37.878Z,99763.73
2023-01-20T20:16:11.113Z,99764.21
2023-01-20T20:18:43.241Z,99762.70
2023-01-20T20:21:15.630Z,99760.86
2023-01-20T20:23:50.005Z,99760.83
2023-01-20T20:26:23.757Z,99764.61
2023-01-20T20:28:56.449Z,99771.48
2023-01-20T20:31:29.641Z,99771.18
2023-01-20T20:34:03.501Z,99778.06
2023-01-20T20:36:36.121Z,99777.42
2023-01-20T20:39:08.934Z,99781.64
2023-01-20T20:41:41.085Z,99776.95
2023-01-20T20:44:12.385Z,99777.16
2023-01-20T20:46:44.812Z,99774.73
2023-01-20T20:49:17.691Z,99775.64
2023-01-20T20:51:50.251Z,99773.56
2023-01-20T20:54:22.425Z,99780.04
2023-01-20T20:56:52.937Z,99775.02
2023-01-20T20:59:25.650Z,99775.21
2023-01-20T21:01:58.094Z,99775.05
2023-01-20T21:04:31.346Z,99772.25
2023-01-20T21:07:03.372Z,99772.09
2023-01-20T21:09:34.982Z,99772.62
2023-01-20T21:12:07.536Z,99765.35
2023-01-20T21:14:40.196Z,99760.17
2023-01-20T21:17:12.404Z,99752.87
2023-01-20T21:19:44.605Z,99742.79
2023-01-20T21:22:15.418Z,99740.90
2023-01-20T21:24:47.529Z,99750.02
2023-01-20T21:27:22.826Z,99748.85
2023-01-20T21:29:53.354Z,99749.23
2023-01-20T21:32:25.768Z,99750.52
2023-01-20T21:34:56.260Z,99750.48
2023-01-20T21:37:28.592Z,99745.34
2023-01-20T21:40:00.907Z,99740.36
2023-01-20T21:42:33.431Z,99743.58
2023-01-20T21:45:06.167Z,99740.64
2023-01-20T21:47:38.358Z,99737.69
2023-01-20T21:50:30.047Z,99737.85
2023-01-20T21:53:02.356Z,99739.77
2023-01-20T21:55:34.369Z,99742.09
2023-01-20T21:58:06.673Z,99745.41
2023-01-20T22:00:38.940Z,99744.35
2023-01-20T22:03:11.509Z,99751.48
2023-01-20T22:05:46.239Z,99751.13
2023-01-20T22:08:18.339Z,99749.58
2023-01-20T22:10:55.850Z,99745.58
2023-01-20T22:13:28.037Z,99746.79
2023-01-20T22:16:02.405Z,99743.13
2023-01-20T22:18:34.865Z,99742.59
2023-01-20T22:21:08.570Z,99737.54
2023-01-20T22:23:40.939Z,99736.67
2023-01-20T22:26:13.252Z,99732.49
2023-01-20T22:28:45.710Z,99730.58
2023-01-20T22:31:23.426Z,99735.10
2023-01-20T22:33:57.335Z,99729.52
2023-01-20T22:36:29.635Z,99731.08
2023-01-20T22:39:00.239Z,99725.80
2023-01-20T22:41:32.998Z,99723.16
2023-01-20T22:44:05.704Z,99720.38
2023-01-20T22:46:38.320Z,99724.91
2023-01-20T22:49:12.368Z,99722.87
2023-01-20T22:51:54.649Z,99719.58
2023-01-20T22:54:26.955Z,99713.66
2023-01-20T22:56:58.990Z,99710.71
2023-01-20T22:59:31.500Z,99712.09
2023-01-20T23:02:06.341Z,99715.09
2023-01-20T23:04:38.609Z,99714.23
2023-01-20T23:07:10.778Z,99710.39
2023-01-20T23:09:41.415Z,99698.56
2023-01-20T23:12:13.713Z,99702.23
2023-01-20T23:14:59.640Z,99712.39
2023-01-20T23:17:34.678Z,99720.27
2023-01-20T23:20:09.084Z,99720.14
2023-01-20T23:22:39.550Z,99719.08
2023-01-20T23:25:12.320Z,99724.79
2023-01-20T23:27:42.923Z,99720.95
2023-01-20T23:30:14.190Z,99722.01
2023-01-20T23:32:45.691Z,99722.89
2023-01-20T23:35:16.361Z,99721.98
2023-01-20T23:37:47.314Z,99721.08
2023-01-20T23:40:18.845Z,99717.77
2023-01-20T23:42:49.744Z,99719.86
2023-01-20T23:45:20.422Z,99722.77
2023-01-20T23:47:50.940Z,99720.16
2023-01-20T23:50:21.864Z,99722.96
2023-01-20T23:52:52.304Z,99727.14
2023-01-20T23:55:22.972Z,99724.34
2023-01-20T23:57:53.518Z,99720.33
